sensor_id;sensor_type;location;lat;lon;timestamp;P1;durP1;ratioP1;P2;durP2;ratioP2
49051;SDS011;34866;48.670;18.260;2023-12-20T00:01:54;18.50;;;10.15;;
49051;SDS011;34866;48.670;18.260;2023-12-20T00:04:20;23.70;;;10.98;;
49051;SDS011;34866;48.670;18.260;2023-12-20T00:06:46;16.48;;;10.40;;
49051;SDS011;34866;48.670;18.260;2023-12-20T00:09:12;15.23;;;10.23;;
49051;SDS011;34866;48.670;18.260;2023-12-20T00:11:38;20.13;;;10.80;;
49051;SDS011;34866;48.670;18.260;2023-12-20T00:14:07;21.15;;;11.35;;
49051;SDS011;34866;48.670;18.260;2023-12-20T00:16:33;20.55;;;10.70;;
49051;SDS011;34866;48.670;18.260;2023-12-20T00:18:59;16.92;;;10.55;;
49051;SDS011;34866;48.670;18.260;2023-12-20T00:21:25;17.23;;;9.77;;
49051;SDS011;34866;48.670;18.260;2023-12-20T00:23:51;26.45;;;11.60;;
49051;SDS011;34866;48.670;18.260;2023-12-20T00:26:17;23.25;;;13.32;;
49051;SDS011;34866;48.670;18.260;2023-12-20T00:28:43;20.92;;;11.65;;
49051;SDS011;34866;48.670;18.260;2023-12-20T00:31:09;20.55;;;10.05;;
49051;SDS011;34866;48.670;18.260;2023-12-20T00:33:35;20.15;;;11.85;;
49051;SDS011;34866;48.670;18.260;2023-12-20T00:36:20;22.50;;;12.80;;
49051;SDS011;34866;48.670;18.260;2023-12-20T00:38:46;18.27;;;10.20;;
49051;SDS011;34866;48.670;18.260;2023-12-20T00:41:12;17.10;;;10.63;;
49051;SDS011;34866;48.670;18.260;2023-12-20T00:43:38;17.70;;;10.13;;
49051;SDS011;34866;48.670;18.260;2023-12-20T00:46:04;21.23;;;12.43;;
49051;SDS011;34866;48.670;18.260;2023-12-20T00:48:30;19.35;;;11.38;;
49051;SDS011;34866;48.670;18.260;2023-12-20T00:50:56;21.17;;;10.45;;
49051;SDS011;34866;48.670;18.260;2023-12-20T00:53:22;16.15;;;9.38;;
49051;SDS011;34866;48.670;18.260;2023-12-20T00:55:48;20.70;;;11.10;;
49051;SDS011;34866;48.670;18.260;2023-12-20T00:58:15;17.00;;;10.27;;
49051;SDS011;34866;48.670;18.260;2023-12-20T01:00:42;17.38;;;10.73;;
49051;SDS011;34866;48.670;18.260;2023-12-20T01:03:09;16.38;;;9.98;;
49051;SDS011;34866;48.670;18.260;2023-12-20T01:05:35;20.63;;;10.77;;
49051;SDS011;34866;48.670;18.260;2023-12-20T01:08:01;20.77;;;11.30;;
49051;SDS011;34866;48.670;18.260;2023-12-20T01:10:28;16.30;;;10.35;;
49051;SDS011;34866;48.670;18.260;2023-12-20T01:12:54;18.08;;;11.90;;
49051;SDS011;34866;48.670;18.260;2023-12-20T01:15:20;20.30;;;11.10;;
49051;SDS011;34866;48.670;18.260;2023-12-20T01:17:47;36.00;;;13.27;;
49051;SDS011;34866;48.670;18.260;2023-12-20T01:20:14;19.60;;;10.30;;
49051;SDS011;34866;48.670;18.260;2023-12-20T01:22:40;16.15;;;10.00;;
49051;SDS011;34866;48.670;18.260;2023-12-20T01:25:07;14.60;;;8.88;;
49051;SDS011;34866;48.670;18.260;2023-12-20T01:27:34;17.92;;;8.98;;
49051;SDS011;34866;48.670;18.260;2023-12-20T01:30:00;19.27;;;10.82;;
49051;SDS011;34866;48.670;18.260;2023-12-20T01:32:26;22.45;;;9.63;;
49051;SDS011;34866;48.670;18.260;2023-12-20T01:34:52;21.48;;;10.00;;
49051;SDS011;34866;48.670;18.260;2023-12-20T01:37:18;14.55;;;8.70;;
49051;SDS011;34866;48.670;18.260;2023-12-20T01:39:44;16.52;;;9.38;;
49051;SDS011;34866;48.670;18.260;2023-12-20T01:42:10;20.63;;;11.38;;
49051;SDS011;34866;48.670;18.260;2023-12-20T01:44:36;19.30;;;10.40;;
49051;SDS011;34866;48.670;18.260;2023-12-20T01:47:02;17.42;;;9.05;;
49051;SDS011;34866;48.670;18.260;2023-12-20T01:49:28;18.48;;;10.52;;
49051;SDS011;34866;48.670;18.260;2023-12-20T01:51:54;21.48;;;10.57;;
49051;SDS011;34866;48.670;18.260;2023-12-20T01:54:22;12.93;;;7.95;;
49051;SDS011;34866;48.670;18.260;2023-12-20T01:56:48;21.77;;;10.43;;
49051;SDS011;34866;48.670;18.260;2023-12-20T01:59:15;14.45;;;8.20;;
49051;SDS011;34866;48.670;18.260;2023-12-20T02:01:41;18.67;;;10.23;;
49051;SDS011;34866;48.670;18.260;2023-12-20T02:04:07;16.67;;;9.45;;
49051;SDS011;34866;48.670;18.260;2023-12-20T02:06:33;17.55;;;10.57;;
49051;SDS011;34866;48.670;18.260;2023-12-20T02:08:59;20.20;;;10.68;;
49051;SDS011;34866;48.670;18.260;2023-12-20T02:11:25;18.45;;;9.68;;
49051;SDS011;34866;48.670;18.260;2023-12-20T02:13:53;18.63;;;10.38;;
49051;SDS011;34866;48.670;18.260;2023-12-20T02:16:19;22.52;;;11.38;;
49051;SDS011;34866;48.670;18.260;2023-12-20T02:18:45;18.92;;;9.85;;
49051;SDS011;34866;48.670;18.260;2023-12-20T02:21:12;20.05;;;9.77;;
49051;SDS011;34866;48.670;18.260;2023-12-20T02:23:38;17.25;;;9.98;;
49051;SDS011;34866;48.670;18.260;2023-12-20T02:26:06;25.83;;;10.40;;
49051;SDS011;34866;48.670;18.260;2023-12-20T02:28:32;17.33;;;9.73;;
49051;SDS011;34866;48.670;18.260;2023-12-20T02:30:59;85.50;;;33.92;;
49051;SDS011;34866;48.670;18.260;2023-12-20T02:33:25;67.68;;;28.17;;
49051;SDS011;34866;48.670;18.260;2023-12-20T02:35:51;29.88;;;15.27;;
49051;SDS011;34866;48.670;18.260;2023-12-20T02:38:17;29.25;;;13.60;;
49051;SDS011;34866;48.670;18.260;2023-12-20T02:40:43;29.92;;;15.52;;
49051;SDS011;34866;48.670;18.260;2023-12-20T02:43:09;37.83;;;15.35;;
49051;SDS011;34866;48.670;18.260;2023-12-20T02:45:35;23.42;;;13.60;;
49051;SDS011;34866;48.670;18.260;2023-12-20T02:48:01;26.48;;;13.48;;
49051;SDS011;34866;48.670;18.260;2023-12-20T02:50:28;24.52;;;12.07;;
49051;SDS011;34866;48.670;18.260;2023-12-20T02:52:54;24.85;;;11.55;;
49051;SDS011;34866;48.670;18.260;2023-12-20T02:55:20;24.77;;;12.35;;
49051;SDS011;34866;48.670;18.260;2023-12-20T02:57:46;21.90;;;11.90;;
49051;SDS011;34866;48.670;18.260;2023-12-20T03:00:12;22.67;;;12.02;;
49051;SDS011;34866;48.670;18.260;2023-12-20T03:02:38;21.25;;;10.00;;
49051;SDS011;34866;48.670;18.260;2023-12-20T03:05:05;19.23;;;11.15;;
49051;SDS011;34866;48.670;18.260;2023-12-20T03:07:31;20.00;;;10.98;;
49051;SDS011;34866;48.670;18.260;2023-12-20T03:09:57;14.50;;;8.85;;
49051;SDS011;34866;48.670;18.260;2023-12-20T03:12:23;18.25;;;11.00;;
49051;SDS011;34866;48.670;18.260;2023-12-20T03:14:49;13.00;;;7.55;;
49051;SDS011;34866;48.670;18.260;2023-12-20T03:17:15;19.02;;;9.23;;
49051;SDS011;34866;48.670;18.260;2023-12-20T03:19:41;14.77;;;8.43;;
49051;SDS011;34866;48.670;18.260;2023-12-20T03:22:07;14.35;;;9.85;;
49051;SDS011;34866;48.670;18.260;2023-12-20T03:24:33;16.75;;;10.30;;
49051;SDS011;34866;48.670;18.260;2023-12-20T03:26:59;14.40;;;8.25;;
49051;SDS011;34866;48.670;18.260;2023-12-20T03:29:25;18.52;;;9.75;;
49051;SDS011;34866;48.670;18.260;2023-12-20T03:31:51;14.98;;;8.38;;
49051;SDS011;34866;48.670;18.260;2023-12-20T03:34:17;12.77;;;7.50;;
49051;SDS011;34866;48.670;18.260;2023-12-20T03:36:44;21.05;;;9.88;;
49051;SDS011;34866;48.670;18.260;2023-12-20T03:39:12;19.00;;;9.32;;
49051;SDS011;34866;48.670;18.260;2023-12-20T03:41:38;20.08;;;10.32;;
49051;SDS011;34866;48.670;18.260;2023-12-20T03:44:04;16.77;;;9.98;;
49051;SDS011;34866;48.670;18.260;2023-12-20T03:46:30;15.65;;;10.07;;
49051;SDS011;34866;48.670;18.260;2023-12-20T03:48:56;18.58;;;10.77;;
49051;SDS011;34866;48.670;18.260;2023-12-20T03:51:22;21.30;;;9.73;;
49051;SDS011;34866;48.670;18.260;2023-12-20T03:53:48;13.77;;;7.75;;
49051;SDS011;34866;48.670;18.260;2023-12-20T03:56:14;12.82;;;7.53;;
49051;SDS011;34866;48.670;18.260;2023-12-20T03:58:41;16.52;;;8.60;;
49051;SDS011;34866;48.670;18.260;2023-12-20T04:01:10;17.65;;;9.50;;
49051;SDS011;34866;48.670;18.260;2023-12-20T04:03:37;16.35;;;9.75;;
49051;SDS011;34866;48.670;18.260;2023-12-20T04:06:03;22.38;;;10.20;;
49051;SDS011;34866;48.670;18.260;2023-12-20T04:08:29;14.05;;;9.00;;
49051;SDS011;34866;48.670;18.260;2023-12-20T04:10:55;17.13;;;7.40;;
49051;SDS011;34866;48.670;18.260;2023-12-20T04:13:21;37.42;;;22.27;;
49051;SDS011;34866;48.670;18.260;2023-12-20T04:15:48;25.60;;;14.65;;
49051;SDS011;34866;48.670;18.260;2023-12-20T04:18:16;27.75;;;12.50;;
49051;SDS011;34866;48.670;18.260;2023-12-20T04:20:42;24.45;;;12.38;;
49051;SDS011;34866;48.670;18.260;2023-12-20T04:23:08;17.73;;;10.15;;
49051;SDS011;34866;48.670;18.260;2023-12-20T04:25:34;16.95;;;8.40;;
49051;SDS011;34866;48.670;18.260;2023-12-20T04:28:00;19.60;;;13.02;;
49051;SDS011;34866;48.670;18.260;2023-12-20T04:30:26;17.35;;;11.32;;
49051;SDS011;34866;48.670;18.260;2023-12-20T04:32:52;19.27;;;9.05;;
49051;SDS011;34866;48.670;18.260;2023-12-20T04:35:18;19.77;;;9.40;;
49051;SDS011;34866;48.670;18.260;2023-12-20T04:37:44;17.55;;;10.23;;
49051;SDS011;34866;48.670;18.260;2023-12-20T04:40:10;18.02;;;11.07;;
49051;SDS011;34866;48.670;18.260;2023-12-20T04:42:36;18.27;;;9.82;;
49051;SDS011;34866;48.670;18.260;2023-12-20T04:45:02;34.72;;;16.15;;
49051;SDS011;34866;48.670;18.260;2023-12-20T04:47:28;26.33;;;12.60;;
49051;SDS011;34866;48.670;18.260;2023-12-20T04:49:54;16.70;;;9.38;;
49051;SDS011;34866;48.670;18.260;2023-12-20T04:52:21;17.15;;;9.30;;
49051;SDS011;34866;48.670;18.260;2023-12-20T04:54:47;24.77;;;11.73;;
49051;SDS011;34866;48.670;18.260;2023-12-20T04:57:13;19.90;;;11.05;;
49051;SDS011;34866;48.670;18.260;2023-12-20T04:59:39;15.23;;;7.93;;
49051;SDS011;34866;48.670;18.260;2023-12-20T05:02:06;14.50;;;8.98;;
49051;SDS011;34866;48.670;18.260;2023-12-20T05:04:32;12.85;;;8.25;;
49051;SDS011;34866;48.670;18.260;2023-12-20T05:06:58;14.27;;;9.65;;
49051;SDS011;34866;48.670;18.260;2023-12-20T05:09:24;15.40;;;9.50;;
49051;SDS011;34866;48.670;18.260;2023-12-20T05:11:50;12.52;;;8.10;;
49051;SDS011;34866;48.670;18.260;2023-12-20T05:14:17;15.50;;;9.85;;
49051;SDS011;34866;48.670;18.260;2023-12-20T05:16:43;14.52;;;9.10;;
49051;SDS011;34866;48.670;18.260;2023-12-20T05:19:09;16.85;;;8.57;;
49051;SDS011;34866;48.670;18.260;2023-12-20T05:21:35;12.25;;;8.32;;
49051;SDS011;34866;48.670;18.260;2023-12-20T05:24:01;14.40;;;8.93;;
49051;SDS011;34866;48.670;18.260;2023-12-20T05:26:27;16.15;;;8.80;;
49051;SDS011;34866;48.670;18.260;2023-12-20T05:28:54;12.20;;;8.25;;
49051;SDS011;34866;48.670;18.260;2023-12-20T05:31:20;12.65;;;9.55;;
49051;SDS011;34866;48.670;18.260;2023-12-20T05:33:46;13.00;;;7.68;;
49051;SDS011;34866;48.670;18.260;2023-12-20T05:36:13;13.82;;;7.68;;
49051;SDS011;34866;48.670;18.260;2023-12-20T05:38:40;17.73;;;9.13;;
49051;SDS011;34866;48.670;18.260;2023-12-20T05:41:06;14.25;;;7.82;;
49051;SDS011;34866;48.670;18.260;2023-12-20T05:43:32;16.50;;;7.60;;
49051;SDS011;34866;48.670;18.260;2023-12-20T05:45:58;16.48;;;8.95;;
49051;SDS011;34866;48.670;18.260;2023-12-20T05:48:24;11.80;;;8.15;;
49051;SDS011;34866;48.670;18.260;2023-12-20T05:50:50;12.20;;;7.95;;
49051;SDS011;34866;48.670;18.260;2023-12-20T05:53:17;14.07;;;7.82;;
49051;SDS011;34866;48.670;18.260;2023-12-20T05:55:43;11.57;;;7.22;;
49051;SDS011;34866;48.670;18.260;2023-12-20T05:58:09;14.25;;;8.55;;
49051;SDS011;34866;48.670;18.260;2023-12-20T06:00:35;17.08;;;9.00;;
49051;SDS011;34866;48.670;18.260;2023-12-20T06:03:01;12.88;;;7.70;;
49051;SDS011;34866;48.670;18.260;2023-12-20T06:05:27;16.80;;;9.48;;
49051;SDS011;34866;48.670;18.260;2023-12-20T06:07:53;17.40;;;8.30;;
49051;SDS011;34866;48.670;18.260;2023-12-20T06:10:21;19.13;;;9.43;;
49051;SDS011;34866;48.670;18.260;2023-12-20T06:12:47;13.85;;;7.53;;
49051;SDS011;34866;48.670;18.260;2023-12-20T06:15:15;21.58;;;10.73;;
49051;SDS011;34866;48.670;18.260;2023-12-20T06:17:41;19.25;;;9.38;;
49051;SDS011;34866;48.670;18.260;2023-12-20T06:20:08;17.17;;;8.32;;
49051;SDS011;34866;48.670;18.260;2023-12-20T06:22:34;16.10;;;8.05;;
49051;SDS011;34866;48.670;18.260;2023-12-20T06:25:02;15.82;;;9.63;;
49051;SDS011;34866;48.670;18.260;2023-12-20T06:27:29;20.20;;;9.13;;
49051;SDS011;34866;48.670;18.260;2023-12-20T06:29:58;19.05;;;9.40;;
49051;SDS011;34866;48.670;18.260;2023-12-20T06:32:24;17.63;;;10.13;;
49051;SDS011;34866;48.670;18.260;2023-12-20T06:34:50;21.83;;;9.65;;
49051;SDS011;34866;48.670;18.260;2023-12-20T06:37:16;16.05;;;9.00;;
49051;SDS011;34866;48.670;18.260;2023-12-20T06:39:42;12.93;;;8.93;;
49051;SDS011;34866;48.670;18.260;2023-12-20T06:42:08;17.52;;;9.13;;
49051;SDS011;34866;48.670;18.260;2023-12-20T06:44:34;12.45;;;8.32;;
49051;SDS011;34866;48.670;18.260;2023-12-20T06:47:01;17.50;;;9.65;;
49051;SDS011;34866;48.670;18.260;2023-12-20T06:49:28;14.57;;;8.63;;
49051;SDS011;34866;48.670;18.260;2023-12-20T06:51:54;19.02;;;9.65;;
49051;SDS011;34866;48.670;18.260;2023-12-20T06:54:20;23.20;;;10.50;;
49051;SDS011;34866;48.670;18.260;2023-12-20T06:56:46;16.17;;;10.70;;
49051;SDS011;34866;48.670;18.260;2023-12-20T06:59:12;15.07;;;9.05;;
49051;SDS011;34866;48.670;18.260;2023-12-20T07:01:38;15.25;;;7.80;;
49051;SDS011;34866;48.670;18.260;2023-12-20T07:04:04;12.20;;;7.60;;
49051;SDS011;34866;48.670;18.260;2023-12-20T07:06:30;15.23;;;8.23;;
49051;SDS011;34866;48.670;18.260;2023-12-20T07:08:56;20.40;;;10.48;;
49051;SDS011;34866;48.670;18.260;2023-12-20T07:11:22;18.25;;;9.48;;
49051;SDS011;34866;48.670;18.260;2023-12-20T07:13:49;18.23;;;10.30;;
49051;SDS011;34866;48.670;18.260;2023-12-20T07:16:15;20.60;;;10.02;;
49051;SDS011;34866;48.670;18.260;2023-12-20T07:18:41;15.73;;;10.05;;
49051;SDS011;34866;48.670;18.260;2023-12-20T07:21:07;13.20;;;7.20;;
49051;SDS011;34866;48.670;18.260;2023-12-20T07:23:33;20.60;;;9.98;;
49051;SDS011;34866;48.670;18.260;2023-12-20T07:25:59;16.73;;;9.52;;
49051;SDS011;34866;48.670;18.260;2023-12-20T07:28:25;19.52;;;11.38;;
49051;SDS011;34866;48.670;18.260;2023-12-20T07:30:51;20.05;;;10.07;;
49051;SDS011;34866;48.670;18.260;2023-12-20T07:33:17;18.05;;;10.55;;
49051;SDS011;34866;48.670;18.260;2023-12-20T07:35:43;18.23;;;9.43;;
49051;SDS011;34866;48.670;18.260;2023-12-20T07:38:10;21.90;;;11.48;;
49051;SDS011;34866;48.670;18.260;2023-12-20T07:40:37;17.05;;;10.82;;
49051;SDS011;34866;48.670;18.260;2023-12-20T07:43:04;16.23;;;10.90;;
49051;SDS011;34866;48.670;18.260;2023-12-20T07:45:30;15.55;;;8.98;;
49051;SDS011;34866;48.670;18.260;2023-12-20T07:47:57;17.83;;;10.70;;
49051;SDS011;34866;48.670;18.260;2023-12-20T07:50:23;16.38;;;9.43;;
49051;SDS011;34866;48.670;18.260;2023-12-20T07:52:49;16.73;;;9.30;;
49051;SDS011;34866;48.670;18.260;2023-12-20T07:55:15;18.02;;;9.85;;
49051;SDS011;34866;48.670;18.260;2023-12-20T07:57:41;12.93;;;7.43;;
49051;SDS011;34866;48.670;18.260;2023-12-20T08:00:09;20.40;;;11.07;;
49051;SDS011;34866;48.670;18.260;2023-12-20T08:02:35;18.08;;;10.10;;
49051;SDS011;34866;48.670;18.260;2023-12-20T08:05:01;14.95;;;8.38;;
49051;SDS011;34866;48.670;18.260;2023-12-20T08:07:27;16.35;;;9.25;;
49051;SDS011;34866;48.670;18.260;2023-12-20T08:09:53;18.15;;;9.68;;
49051;SDS011;34866;48.670;18.260;2023-12-20T08:12:21;20.95;;;10.98;;
49051;SDS011;34866;48.670;18.260;2023-12-20T08:14:47;13.38;;;7.28;;
49051;SDS011;34866;48.670;18.260;2023-12-20T08:17:13;16.58;;;9.23;;
49051;SDS011;34866;48.670;18.260;2023-12-20T08:19:41;15.75;;;7.82;;
49051;SDS011;34866;48.670;18.260;2023-12-20T08:22:07;16.15;;;8.27;;
49051;SDS011;34866;48.670;18.260;2023-12-20T08:24:33;17.83;;;9.30;;
49051;SDS011;34866;48.670;18.260;2023-12-20T08:26:59;16.27;;;9.20;;
49051;SDS011;34866;48.670;18.260;2023-12-20T08:29:25;21.38;;;10.32;;
49051;SDS011;34866;48.670;18.260;2023-12-20T08:31:52;19.10;;;9.57;;
49051;SDS011;34866;48.670;18.260;2023-12-20T08:34:19;17.10;;;11.15;;
49051;SDS011;34866;48.670;18.260;2023-12-20T08:36:45;17.42;;;10.55;;
49051;SDS011;34866;48.670;18.260;2023-12-20T08:39:11;20.88;;;11.02;;
49051;SDS011;34866;48.670;18.260;2023-12-20T08:41:37;27.15;;;13.43;;
49051;SDS011;34866;48.670;18.260;2023-12-20T08:44:03;29.45;;;14.10;;
49051;SDS011;34866;48.670;18.260;2023-12-20T08:46:29;29.42;;;15.07;;
49051;SDS011;34866;48.670;18.260;2023-12-20T08:48:55;20.65;;;13.02;;
49051;SDS011;34866;48.670;18.260;2023-12-20T08:51:21;20.75;;;11.38;;
49051;SDS011;34866;48.670;18.260;2023-12-20T08:53:48;22.58;;;11.23;;
49051;SDS011;34866;48.670;18.260;2023-12-20T08:56:15;25.38;;;11.90;;
49051;SDS011;34866;48.670;18.260;2023-12-20T08:58:41;19.88;;;9.45;;
49051;SDS011;34866;48.670;18.260;2023-12-20T09:01:07;19.90;;;11.10;;
49051;SDS011;34866;48.670;18.260;2023-12-20T09:03:34;16.55;;;10.10;;
49051;SDS011;34866;48.670;18.260;2023-12-20T09:06:00;20.33;;;13.63;;
49051;SDS011;34866;48.670;18.260;2023-12-20T09:08:26;21.75;;;12.27;;
49051;SDS011;34866;48.670;18.260;2023-12-20T09:10:52;23.38;;;11.77;;
49051;SDS011;34866;48.670;18.260;2023-12-20T09:13:18;24.25;;;12.27;;
49051;SDS011;34866;48.670;18.260;2023-12-20T09:15:45;29.00;;;13.18;;
49051;SDS011;34866;48.670;18.260;2023-12-20T09:18:11;20.98;;;10.55;;
49051;SDS011;34866;48.670;18.260;2023-12-20T09:20:37;17.25;;;10.98;;
49051;SDS011;34866;48.670;18.260;2023-12-20T09:23:03;16.52;;;9.82;;
49051;SDS011;34866;48.670;18.260;2023-12-20T09:25:29;22.70;;;13.68;;
49051;SDS011;34866;48.670;18.260;2023-12-20T09:27:55;18.40;;;10.32;;
49051;SDS011;34866;48.670;18.260;2023-12-20T09:30:22;28.83;;;13.63;;
49051;SDS011;34866;48.670;18.260;2023-12-20T09:32:48;21.83;;;12.10;;
49051;SDS011;34866;48.670;18.260;2023-12-20T09:35:14;27.35;;;15.52;;
49051;SDS011;34866;48.670;18.260;2023-12-20T09:37:40;24.40;;;13.43;;
49051;SDS011;34866;48.670;18.260;2023-12-20T09:40:10;21.02;;;11.52;;
49051;SDS011;34866;48.670;18.260;2023-12-20T09:45:22;16.58;;;11.35;;
49051;SDS011;34866;48.670;18.260;2023-12-20T09:47:52;23.67;;;14.18;;
49051;SDS011;34866;48.670;18.260;2023-12-20T09:50:22;21.05;;;12.45;;
49051;SDS011;34866;48.670;18.260;2023-12-20T09:52:52;26.33;;;13.27;;
49051;SDS011;34866;48.670;18.260;2023-12-20T09:55:18;29.08;;;15.82;;
49051;SDS011;34866;48.670;18.260;2023-12-20T09:57:46;28.73;;;16.42;;
49051;SDS011;34866;48.670;18.260;2023-12-20T10:00:13;28.58;;;14.60;;
49051;SDS011;34866;48.670;18.260;2023-12-20T10:02:42;24.13;;;14.30;;
49051;SDS011;34866;48.670;18.260;2023-12-20T10:05:13;25.58;;;14.85;;
49051;SDS011;34866;48.670;18.260;2023-12-20T10:07:41;26.75;;;15.48;;
49051;SDS011;34866;48.670;18.260;2023-12-20T10:10:08;34.03;;;16.23;;
49051;SDS011;34866;48.670;18.260;2023-12-20T10:12:35;33.58;;;19.52;;
49051;SDS011;34866;48.670;18.260;2023-12-20T10:15:02;32.85;;;18.70;;
49051;SDS011;34866;48.670;18.260;2023-12-20T10:17:28;28.02;;;15.48;;
49051;SDS011;34866;48.670;18.260;2023-12-20T10:19:54;29.63;;;15.65;;
49051;SDS011;34866;48.670;18.260;2023-12-20T10:22:21;26.08;;;15.43;;
49051;SDS011;34866;48.670;18.260;2023-12-20T10:24:47;31.50;;;17.13;;
49051;SDS011;34866;48.670;18.260;2023-12-20T10:27:13;26.00;;;14.65;;
49051;SDS011;34866;48.670;18.260;2023-12-20T10:29:39;30.70;;;16.08;;
49051;SDS011;34866;48.670;18.260;2023-12-20T10:32:21;24.13;;;12.15;;
49051;SDS011;34866;48.670;18.260;2023-12-20T10:34:48;29.02;;;15.88;;
49051;SDS011;34866;48.670;18.260;2023-12-20T10:37:14;32.33;;;16.55;;
49051;SDS011;34866;48.670;18.260;2023-12-20T10:39:40;28.65;;;16.23;;
49051;SDS011;34866;48.670;18.260;2023-12-20T10:42:12;27.42;;;14.93;;
49051;SDS011;34866;48.670;18.260;2023-12-20T10:44:38;22.33;;;12.60;;
49051;SDS011;34866;48.670;18.260;2023-12-20T10:47:04;26.52;;;15.52;;
49051;SDS011;34866;48.670;18.260;2023-12-20T10:49:31;26.80;;;14.25;;
49051;SDS011;34866;48.670;18.260;2023-12-20T10:51:58;27.80;;;13.80;;
49051;SDS011;34866;48.670;18.260;2023-12-20T10:54:25;22.80;;;13.77;;
49051;SDS011;34866;48.670;18.260;2023-12-20T10:56:51;27.75;;;16.10;;
49051;SDS011;34866;48.670;18.260;2023-12-20T10:59:19;24.52;;;14.60;;
49051;SDS011;34866;48.670;18.260;2023-12-20T11:01:47;28.17;;;13.68;;
49051;SDS011;34866;48.670;18.260;2023-12-20T11:04:15;22.33;;;12.73;;
49051;SDS011;34866;48.670;18.260;2023-12-20T11:09:16;24.42;;;13.50;;
49051;SDS011;34866;48.670;18.260;2023-12-20T11:11:52;32.08;;;16.90;;
49051;SDS011;34866;48.670;18.260;2023-12-20T11:14:27;31.17;;;16.20;;
49051;SDS011;34866;48.670;18.260;2023-12-20T11:17:09;35.80;;;18.30;;
49051;SDS011;34866;48.670;18.260;2023-12-20T11:19:43;30.33;;;18.10;;
49051;SDS011;34866;48.670;18.260;2023-12-20T11:22:27;31.35;;;17.23;;
49051;SDS011;34866;48.670;18.260;2023-12-20T11:24:53;34.80;;;19.15;;
49051;SDS011;34866;48.670;18.260;2023-12-20T11:27:21;24.70;;;15.20;;
49051;SDS011;34866;48.670;18.260;2023-12-20T11:29:54;28.77;;;15.20;;
49051;SDS011;34866;48.670;18.260;2023-12-20T11:34:46;27.45;;;13.80;;
49051;SDS011;34866;48.670;18.260;2023-12-20T11:37:12;32.00;;;16.38;;
49051;SDS011;34866;48.670;18.260;2023-12-20T11:39:40;24.83;;;14.77;;
49051;SDS011;34866;48.670;18.260;2023-12-20T11:42:06;22.30;;;13.02;;
49051;SDS011;34866;48.670;18.260;2023-12-20T11:44:32;27.33;;;15.20;;
49051;SDS011;34866;48.670;18.260;2023-12-20T11:46:58;28.10;;;14.48;;
49051;SDS011;34866;48.670;18.260;2023-12-20T11:49:25;24.77;;;12.65;;
49051;SDS011;34866;48.670;18.260;2023-12-20T11:51:51;30.42;;;15.25;;
49051;SDS011;34866;48.670;18.260;2023-12-20T11:54:17;28.45;;;14.68;;
49051;SDS011;34866;48.670;18.260;2023-12-20T11:56:43;26.45;;;13.88;;
49051;SDS011;34866;48.670;18.260;2023-12-20T11:59:09;25.95;;;13.88;;
49051;SDS011;34866;48.670;18.260;2023-12-20T12:01:36;26.05;;;15.50;;
49051;SDS011;34866;48.670;18.260;2023-12-20T12:04:03;23.55;;;14.75;;
49051;SDS011;34866;48.670;18.260;2023-12-20T12:06:29;22.80;;;12.73;;
49051;SDS011;34866;48.670;18.260;2023-12-20T12:08:55;21.02;;;13.27;;
49051;SDS011;34866;48.670;18.260;2023-12-20T12:11:21;23.48;;;12.07;;
49051;SDS011;34866;48.670;18.260;2023-12-20T12:13:47;30.00;;;14.00;;
49051;SDS011;34866;48.670;18.260;2023-12-20T12:16:17;24.98;;;13.30;;
49051;SDS011;34866;48.670;18.260;2023-12-20T12:18:44;31.17;;;15.48;;
49051;SDS011;34866;48.670;18.260;2023-12-20T12:21:10;33.95;;;18.48;;
49051;SDS011;34866;48.670;18.260;2023-12-20T12:23:36;31.15;;;17.80;;
49051;SDS011;34866;48.670;18.260;2023-12-20T12:26:05;30.35;;;18.27;;
49051;SDS011;34866;48.670;18.260;2023-12-20T12:28:34;33.63;;;17.33;;
49051;SDS011;34866;48.670;18.260;2023-12-20T12:31:00;30.73;;;13.52;;
49051;SDS011;34866;48.670;18.260;2023-12-20T12:33:26;25.95;;;14.35;;
49051;SDS011;34866;48.670;18.260;2023-12-20T12:35:52;24.73;;;14.10;;
49051;SDS011;34866;48.670;18.260;2023-12-20T12:38:22;20.63;;;13.85;;
49051;SDS011;34866;48.670;18.260;2023-12-20T12:40:48;27.92;;;15.57;;
49051;SDS011;34866;48.670;18.260;2023-12-20T12:43:15;27.60;;;15.38;;
49051;SDS011;34866;48.670;18.260;2023-12-20T12:45:41;27.77;;;16.70;;
49051;SDS011;34866;48.670;18.260;2023-12-20T12:48:07;32.30;;;16.50;;
49051;SDS011;34866;48.670;18.260;2023-12-20T12:50:33;23.48;;;14.75;;
49051;SDS011;34866;48.670;18.260;2023-12-20T12:52:59;26.30;;;13.10;;
49051;SDS011;34866;48.670;18.260;2023-12-20T12:55:25;26.08;;;16.25;;
49051;SDS011;34866;48.670;18.260;2023-12-20T12:57:51;25.35;;;12.68;;
49051;SDS011;34866;48.670;18.260;2023-12-20T13:00:17;29.45;;;14.68;;
49051;SDS011;34866;48.670;18.260;2023-12-20T13:02:45;25.88;;;15.15;;
49051;SDS011;34866;48.670;18.260;2023-12-20T13:05:11;26.17;;;14.98;;
49051;SDS011;34866;48.670;18.260;2023-12-20T13:07:38;25.42;;;14.40;;
49051;SDS011;34866;48.670;18.260;2023-12-20T13:10:04;21.13;;;13.05;;
49051;SDS011;34866;48.670;18.260;2023-12-20T13:12:31;23.48;;;12.85;;
49051;SDS011;34866;48.670;18.260;2023-12-20T13:14:57;22.92;;;13.15;;
49051;SDS011;34866;48.670;18.260;2023-12-20T13:17:23;26.90;;;13.40;;
49051;SDS011;34866;48.670;18.260;2023-12-20T13:19:49;25.63;;;14.52;;
49051;SDS011;34866;48.670;18.260;2023-12-20T13:22:15;24.73;;;14.10;;
49051;SDS011;34866;48.670;18.260;2023-12-20T13:24:41;22.48;;;14.20;;
49051;SDS011;34866;48.670;18.260;2023-12-20T13:27:09;26.08;;;15.27;;
49051;SDS011;34866;48.670;18.260;2023-12-20T13:29:35;30.15;;;14.90;;
49051;SDS011;34866;48.670;18.260;2023-12-20T13:32:02;27.00;;;15.95;;
49051;SDS011;34866;48.670;18.260;2023-12-20T13:34:29;32.08;;;17.48;;
49051;SDS011;34866;48.670;18.260;2023-12-20T13:36:55;24.42;;;14.35;;
49051;SDS011;34866;48.670;18.260;2023-12-20T13:39:22;30.25;;;15.07;;
49051;SDS011;34866;48.670;18.260;2023-12-20T13:41:48;30.85;;;15.00;;
49051;SDS011;34866;48.670;18.260;2023-12-20T13:44:14;30.45;;;15.55;;
49051;SDS011;34866;48.670;18.260;2023-12-20T13:46:41;27.52;;;15.98;;
49051;SDS011;34866;48.670;18.260;2023-12-20T13:49:07;29.73;;;15.48;;
49051;SDS011;34866;48.670;18.260;2023-12-20T13:51:33;31.48;;;16.95;;
49051;SDS011;34866;48.670;18.260;2023-12-20T13:53:59;28.92;;;15.52;;
49051;SDS011;34866;48.670;18.260;2023-12-20T13:56:25;29.67;;;16.77;;
49051;SDS011;34866;48.670;18.260;2023-12-20T13:58:51;33.47;;;18.88;;
49051;SDS011;34866;48.670;18.260;2023-12-20T14:01:17;32.28;;;17.02;;
49051;SDS011;34866;48.670;18.260;2023-12-20T14:03:43;37.65;;;19.65;;
49051;SDS011;34866;48.670;18.260;2023-12-20T14:06:09;27.60;;;15.35;;
49051;SDS011;34866;48.670;18.260;2023-12-20T14:08:35;30.35;;;16.67;;
49051;SDS011;34866;48.670;18.260;2023-12-20T14:11:02;31.67;;;17.20;;
49051;SDS011;34866;48.670;18.260;2023-12-20T14:13:28;37.40;;;17.58;;
49051;SDS011;34866;48.670;18.260;2023-12-20T14:15:54;30.02;;;17.08;;
49051;SDS011;34866;48.670;18.260;2023-12-20T14:18:20;32.83;;;15.77;;